Ardara, PA

12:20 PM EST on December 18, 2014 (GMT -0500)
Willow Glen | Change Station
CLOSE
Current Station
Personal Weather Station
Location: Irwin, PA
Elevation: 1191 ft
Nearby Weather Stations

Elev 1191 ft 40.33 °N, 79.76 °W | Updated 10 seconds ago

Overcast
Overcast
27.7 °F
Feels Like 20 °F
N
7.3
Wind Variable Wind from West
Gusts 16.1 mph

Today
High -- | Low -- °F
--% Chance of Precip.
Yesterday
High -- | Low -- °F
Precip. -- in
7:36 AM 4:54 PM
Waning Crescent, 13% visible
Pressure 30.16 in
Visibility 1.8 miles
Clouds Scattered Clouds 1500 ft
Mostly Cloudy 2200 ft
Overcast 2700 ft
Windchill 20 °F
Dew Point 25 °F
Humidity 88%
Rainfall 0.00 in
Snow Depth Not available.
UV 1 out of 12
Pollen .10 out of 12
Air Quality Not available.
Flu Activity Not available.
SPECI KAGC 181715Z 26010KT 1 3/4SM BR SCT015 BKN022 OVC027 M02/M06 A3016 RMK AO2 SNE1658B10E15 P0000 T10221061

More Conditions Fewer Conditions

Pressure 30.16 in
Visibility 1.8 miles
Clouds Scattered Clouds 1500 ft
Mostly Cloudy 2200 ft
Overcast 2700 ft
Windchill 20 °F
Dew Point 25 °F
Humidity 88%
Rainfall 0.00 in
Snow Depth Not available.
UV 1 out of 12
Pollen .10 out of 12
Air Quality Not available.
Flu Activity Not available.
SPECI KAGC 181715Z 26010KT 1 3/4SM BR SCT015 BKN022 OVC027 M02/M06 A3016 RMK AO2 SNE1658B10E15 P0000 T10221061

More Conditions Fewer Conditions

10-Day Weather Forecast

Almanac

Astronomy

Dec. 18, 2014 Rise Set
Actual Time
Civil Twilight
Nautical Twilight
Astronomical Twilight
Moon
Length of Visible Light
Length of Day
Tomorrow will be .
, % of the Moon is Illuminated

Today's Extremes

State Highs State Lows

Community

WunderPhotos

Upload Photos

1,778,964 photos uploaded!

WunderBlogs® & News

Nearby

Air Quality

  Air Quality AQ Index Pollutant
Not available.

Snow Depth

Station Depth Elevation

Earthquake Activity

City Distance Mag. Time & Date
Minimum magnitude displayed is 2.5.

Coastal Water Temperatures

Place Temperature

Nearby Weather Stations